Time;durP1;ratioP1;P1;durP2;ratioP2;P2;SDS_P1;SDS_P2;PMS_P1;PMS_P2;Temp;Humidity;BMP_temperature;BMP_pressure;BME280_temperature;BME280_humidity;BME280_pressure;Samples;Min_cycle;Max_cycle;Signal;HPM_P1;HPM_P2
2022/03/24 00:01:55;;;;;;;20.90;12.55;;;9.40;48.80;;;;;;5032241;28;20049;-80
2022/03/24 00:04:24;;;;;;;22.60;13.20;;;9.30;48.80;;;;;;5032514;28;20450;-75
2022/03/24 00:06:51;;;;;;;20.85;12.57;;;9.30;49.60;;;;;;5032485;28;20087;-80
2022/03/24 00:09:18;;;;;;;23.00;11.95;;;9.20;49.70;;;;;;5015863;28;20037;-77
2022/03/24 00:11:47;;;;;;;21.88;12.98;;;9.60;49.90;;;;;;5033428;28;20109;-73
2022/03/24 00:14:16;;;;;;;37.15;22.77;;;9.50;50.50;;;;;;5019194;28;20045;-83
2022/03/24 00:16:44;;;;;;;57.28;33.80;;;9.60;52.00;;;;;;5034957;28;20152;-79
2022/03/24 00:19:11;;;;;;;45.33;25.88;;;9.40;51.80;;;;;;5036748;28;20390;-76
2022/03/24 00:21:38;;;;;;;24.35;15.07;;;9.40;52.00;;;;;;5023912;28;20065;-83
2022/03/24 00:24:07;;;;;;;23.77;12.07;;;9.50;51.30;;;;;;5036642;28;20057;-74
2022/03/24 00:26:35;;;;;;;21.98;12.02;;;9.30;51.10;;;;;;5032313;28;20053;-74
2022/03/24 00:29:03;;;;;;;19.88;9.95;;;9.30;52.30;;;;;;5032074;28;20448;-73
2022/03/24 00:31:30;;;;;;;19.05;10.98;;;9.20;52.00;;;;;;5031806;28;20463;-77
2022/03/24 00:33:58;;;;;;;20.42;11.45;;;9.20;50.40;;;;;;5032226;28;20047;-79
2022/03/24 00:36:26;;;;;;;18.08;10.52;;;9.10;51.20;;;;;;5031729;28;20397;-82
2022/03/24 00:38:55;;;;;;;15.85;9.65;;;9.00;52.10;;;;;;5032079;28;20037;-79
2022/03/24 00:41:22;;;;;;;19.10;9.30;;;8.70;50.10;;;;;;5036430;28;20073;-77
2022/03/24 00:43:50;;;;;;;17.08;9.10;;;8.40;50.10;;;;;;5020747;28;20045;-75
2022/03/24 00:46:21;;;;;;;14.00;8.95;;;8.40;50.40;;;;;;5038038;28;20401;-84
2022/03/24 00:48:50;;;;;;;18.55;8.32;;;8.40;50.20;;;;;;5038243;28;20386;-79
2022/03/24 00:51:18;;;;;;;17.35;8.07;;;8.30;49.40;;;;;;5037956;28;20400;-78
2022/03/24 00:53:47;;;;;;;16.15;8.35;;;8.30;49.00;;;;;;5037866;28;20052;-81
2022/03/24 00:56:14;;;;;;;19.73;10.50;;;8.40;49.40;;;;;;5037409;28;20041;-78
2022/03/24 00:58:42;;;;;;;20.48;11.10;;;8.40;50.50;;;;;;5038054;28;20061;-75
2022/03/24 01:01:12;;;;;;;15.77;11.10;;;8.50;51.10;;;;;;5037948;28;20073;-80
2022/03/24 01:03:40;;;;;;;;;;;8.70;51.30;;;;;;5038154;28;20038;-80
2022/03/24 01:06:08;;;;;;;16.75;9.93;;;9.00;51.30;;;;;;5037830;28;19927;-77
2022/03/24 01:08:35;;;;;;;20.50;8.82;;;8.90;50.70;;;;;;5037834;28;20139;-81
2022/03/24 01:11:05;;;;;;;21.13;10.20;;;8.70;50.20;;;;;;5037389;28;20065;-81
2022/03/24 01:13:36;;;;;;;15.73;9.40;;;9.00;50.90;;;;;;5037947;28;20404;-82
2022/03/24 01:16:04;;;;;;;17.52;9.93;;;8.80;51.70;;;;;;5037321;28;20057;-81
2022/03/24 01:18:34;;;;;;;15.63;9.57;;;8.60;53.10;;;;;;5037561;28;20061;-76
2022/03/24 01:21:04;;;;;;;13.50;9.30;;;8.50;52.20;;;;;;5037684;28;20547;-75
2022/03/24 01:23:33;;;;;;;19.23;8.98;;;8.60;52.00;;;;;;5037167;28;20067;-74
2022/03/24 01:26:04;;;;;;;15.13;8.98;;;8.70;52.40;;;;;;5037631;28;20057;-78
2022/03/24 01:28:32;;;;;;;;;;;8.40;51.60;;;;;;5038127;28;20038;-78
2022/03/24 01:30:59;;;;;;;12.70;8.50;;;8.50;51.50;;;;;;5037503;28;19932;-77
2022/03/24 01:33:27;;;;;;;21.90;10.10;;;8.50;51.50;;;;;;5037909;28;20045;-84
2022/03/24 01:35:54;;;;;;;19.55;11.95;;;8.50;52.70;;;;;;5037660;28;20037;-77
2022/03/24 01:38:22;;;;;;;22.83;11.68;;;8.10;54.10;;;;;;5037454;28;20056;-80
2022/03/24 01:40:50;;;;;;;22.35;11.65;;;8.10;54.70;;;;;;5037505;28;20048;-83
2022/03/24 01:43:19;;;;;;;20.05;11.32;;;8.40;54.70;;;;;;5037772;28;20382;-81
2022/03/24 01:45:46;;;;;;;22.30;11.10;;;8.30;53.70;;;;;;5030549;28;20048;-77
2022/03/24 01:48:14;;;;;;;23.00;12.13;;;8.30;53.70;;;;;;5036033;28;20041;-77
2022/03/24 01:50:42;;;;;;;26.15;11.77;;;8.20;53.70;;;;;;5046168;28;20045;-83
2022/03/24 01:53:12;;;;;;;19.08;11.98;;;8.10;53.60;;;;;;5035635;28;20048;-89
2022/03/24 01:55:42;;;;;;;23.05;11.77;;;8.10;53.40;;;;;;5037084;28;20044;-87
2022/03/24 01:58:11;;;;;;;22.27;12.20;;;8.20;53.70;;;;;;5036175;28;20041;-83
2022/03/24 02:00:39;;;;;;;16.77;11.27;;;7.80;53.40;;;;;;5018120;28;20037;-78
2022/03/24 02:03:07;;;;;;;18.80;12.23;;;7.80;53.60;;;;;;5042576;28;20041;-83
2022/03/24 02:05:37;;;;;;;22.63;13.73;;;8.00;54.00;;;;;;5025031;28;20465;-77
2022/03/24 02:08:04;;;;;;;26.13;13.65;;;7.90;54.20;;;;;;5041581;28;20732;-78
2022/03/24 02:10:33;;;;;;;21.77;14.05;;;7.70;55.40;;;;;;5054134;28;20045;-80
2022/03/24 02:13:01;;;;;;;31.58;16.13;;;7.40;56.70;;;;;;5053757;28;20124;-83
2022/03/24 02:15:28;;;;;;;27.70;15.63;;;7.40;57.30;;;;;;5049779;28;20052;-81
2022/03/24 02:17:55;;;;;;;21.85;14.60;;;7.30;57.50;;;;;;5033842;28;20049;-82
2022/03/24 02:20:24;;;;;;;28.10;15.05;;;7.40;57.40;;;;;;5034769;28;20413;-86
2022/03/24 02:22:52;;;;;;;24.58;14.65;;;7.50;57.40;;;;;;5034949;28;20051;-82
2022/03/24 02:25:22;;;;;;;29.25;14.15;;;7.40;57.30;;;;;;5035584;28;20084;-88
2022/03/24 02:27:55;;;;;;;26.80;14.10;;;7.60;56.80;;;;;;5036175;28;20045;-87
2022/03/24 02:30:24;;;;;;;24.17;14.85;;;7.70;56.30;;;;;;5018504;28;20038;-83
2022/03/24 02:32:52;;;;;;;23.52;12.75;;;7.70;55.50;;;;;;5034296;28;20404;-84
2022/03/24 02:35:19;;;;;;;20.05;12.57;;;7.70;54.50;;;;;;5016704;28;20045;-83
2022/03/24 02:37:47;;;;;;;20.40;11.93;;;7.70;53.70;;;;;;5034154;28;20523;-85
2022/03/24 02:40:15;;;;;;;21.17;12.40;;;7.40;54.00;;;;;;5017074;28;20052;-82
2022/03/24 02:42:42;;;;;;;20.10;12.13;;;7.40;55.40;;;;;;5016646;28;20045;-81
2022/03/24 02:45:10;;;;;;;19.83;12.65;;;7.50;55.00;;;;;;5033905;28;20061;-83
2022/03/24 02:47:39;;;;;;;23.30;12.07;;;7.70;54.80;;;;;;5033630;28;20513;-82
2022/03/24 02:50:07;;;;;;;20.55;12.40;;;7.40;54.10;;;;;;5033727;28;20393;-80
2022/03/24 02:52:34;;;;;;;29.67;13.23;;;7.30;54.80;;;;;;5033345;28;20063;-73
2022/03/24 02:55:02;;;;;;;20.75;13.48;;;6.70;56.90;;;;;;5033223;28;20413;-75
2022/03/24 02:57:30;;;;;;;22.40;13.02;;;6.60;58.40;;;;;;5033220;28;20048;-74
2022/03/24 02:59:58;;;;;;;21.52;12.23;;;6.70;59.10;;;;;;5033882;28;20041;-75
2022/03/24 03:02:25;;;;;;;20.15;12.82;;;6.90;58.90;;;;;;5037368;28;20072;-76
2022/03/24 03:04:53;;;;;;;20.20;12.15;;;6.60;59.10;;;;;;5033580;28;20441;-81
2022/03/24 03:07:21;;;;;;;18.58;11.93;;;6.70;59.50;;;;;;5033387;28;20042;-80
2022/03/24 03:09:49;;;;;;;17.85;10.77;;;6.50;59.40;;;;;;5033663;28;20033;-76
2022/03/24 03:12:17;;;;;;;17.83;10.60;;;6.20;59.70;;;;;;5034455;28;20332;-82
2022/03/24 03:14:48;;;;;;;13.90;9.13;;;6.30;60.20;;;;;;5034087;28;20044;-79
2022/03/24 03:17:15;;;;;;;15.43;10.00;;;6.80;59.30;;;;;;5033613;28;20045;-78
2022/03/24 03:19:45;;;;;;;16.02;11.15;;;6.70;56.90;;;;;;5033492;28;20050;-80
2022/03/24 03:22:14;;;;;;;22.73;9.73;;;6.80;57.30;;;;;;5033480;28;20456;-82
2022/03/24 03:24:43;;;;;;;13.10;9.13;;;6.80;57.60;;;;;;5033093;28;20061;-75
2022/03/24 03:27:12;;;;;;;14.98;9.20;;;6.50;57.80;;;;;;5032872;28;20049;-74
2022/03/24 03:29:41;;;;;;;16.65;9.10;;;5.80;58.00;;;;;;5033310;28;20042;-77
2022/03/24 03:32:09;;;;;;;14.30;9.10;;;5.90;58.60;;;;;;5033098;28;20116;-75
2022/03/24 03:34:38;;;;;;;17.15;9.57;;;5.60;59.00;;;;;;5015008;28;20496;-81
2022/03/24 03:37:05;;;;;;;16.27;9.55;;;5.90;58.70;;;;;;5033264;28;20757;-77
2022/03/24 03:39:34;;;;;;;14.93;10.32;;;5.70;58.10;;;;;;5032879;28;20104;-72
2022/03/24 03:42:01;;;;;;;16.90;10.65;;;5.60;57.80;;;;;;5032823;28;20492;-76
2022/03/24 03:44:28;;;;;;;16.17;10.18;;;5.60;58.10;;;;;;5032452;28;20397;-70
2022/03/24 03:46:55;;;;;;;24.63;11.68;;;5.00;58.20;;;;;;5033082;28;20041;-91
2022/03/24 03:49:23;;;;;;;20.02;11.18;;;5.40;58.80;;;;;;5033765;28;20045;-79
2022/03/24 03:52:11;;;;;;;18.27;10.73;;;5.80;58.50;;;;;;5035806;28;20401;-83
2022/03/24 03:54:38;;;;;;;17.83;10.85;;;5.80;58.00;;;;;;5032836;28;20045;-78
2022/03/24 03:57:06;;;;;;;20.75;11.10;;;5.60;58.10;;;;;;5033127;28;20042;-78
2022/03/24 03:59:33;;;;;;;21.42;12.05;;;5.20;58.30;;;;;;5032707;28;20044;-80
2022/03/24 04:02:00;;;;;;;19.40;12.00;;;5.20;58.90;;;;;;5032856;28;20052;-80
2022/03/24 04:04:28;;;;;;;22.80;11.85;;;5.40;58.90;;;;;;5033225;28;20496;-82
2022/03/24 04:07:03;;;;;;;26.35;13.30;;;5.50;58.00;;;;;;5033171;28;20037;-87
2022/03/24 04:09:30;;;;;;;20.77;12.00;;;5.50;57.80;;;;;;5034980;28;20116;-87
2022/03/24 04:11:57;;;;;;;20.30;12.13;;;5.30;57.60;;;;;;5033613;28;20037;-87
2022/03/24 04:14:25;;;;;;;19.65;11.70;;;5.60;57.80;;;;;;5033296;28;20049;-76
2022/03/24 04:16:56;;;;;;;21.17;11.48;;;5.70;57.10;;;;;;5033615;28;20041;-77
2022/03/24 04:19:25;;;;;;;20.25;10.57;;;5.40;57.10;;;;;;4998386;28;20061;-75
2022/03/24 04:21:53;;;;;;;16.92;10.05;;;5.70;56.70;;;;;;5032602;28;20039;-78
2022/03/24 04:24:20;;;;;;;18.02;11.90;;;5.70;56.80;;;;;;5032085;28;20052;-78
2022/03/24 04:26:47;;;;;;;20.40;11.10;;;5.90;57.00;;;;;;5032273;28;20049;-77
2022/03/24 04:29:15;;;;;;;20.77;10.68;;;5.60;56.50;;;;;;5031766;28;20422;-75
2022/03/24 04:31:42;;;;;;;18.95;11.27;;;5.70;56.80;;;;;;5032321;28;20041;-77
2022/03/24 04:34:10;;;;;;;19.55;11.30;;;5.50;57.20;;;;;;5031607;28;20037;-73
2022/03/24 04:36:37;;;;;;;17.67;10.90;;;5.90;57.80;;;;;;5031519;28;20045;-73
2022/03/24 04:39:04;;;;;;;18.55;10.65;;;5.90;56.90;;;;;;5014394;28;20061;-75
2022/03/24 04:41:32;;;;;;;14.50;9.65;;;5.70;57.10;;;;;;5031173;28;20037;-77
2022/03/24 04:43:59;;;;;;;16.70;10.43;;;5.80;56.90;;;;;;5031462;28;20386;-76
2022/03/24 04:46:26;;;;;;;20.52;10.77;;;6.00;56.10;;;;;;5031468;28;20041;-75
2022/03/24 04:48:54;;;;;;;20.88;12.00;;;6.00;57.20;;;;;;5032089;28;20044;-81
2022/03/24 04:51:21;;;;;;;21.17;11.90;;;5.70;58.80;;;;;;5034329;28;20049;-75
2022/03/24 04:53:48;;;;;;;22.48;11.70;;;5.40;59.80;;;;;;5034693;28;20045;-81
2022/03/24 04:56:16;;;;;;;19.15;12.55;;;5.60;59.80;;;;;;5033699;28;20041;-82
2022/03/24 04:58:43;;;;;;;22.75;11.50;;;5.40;60.60;;;;;;5032366;28;20046;-78
2022/03/24 05:01:13;;;;;;;15.43;10.90;;;5.50;61.50;;;;;;5031374;28;20050;-80
2022/03/24 05:03:46;;;;;;;19.27;10.85;;;5.80;59.30;;;;;;5031332;28;20501;-81
2022/03/24 05:06:14;;;;;;;20.10;11.18;;;5.80;59.00;;;;;;5031055;28;20033;-81
2022/03/24 05:08:41;;;;;;;19.88;11.50;;;5.90;58.70;;;;;;5032272;28;20045;-82
2022/03/24 05:11:09;;;;;;;23.17;11.70;;;5.80;59.20;;;;;;5032877;28;20049;-81
2022/03/24 05:13:36;;;;;;;16.60;11.63;;;5.60;58.50;;;;;;5032010;28;20046;-85
2022/03/24 05:16:04;;;;;;;23.33;11.25;;;5.40;59.20;;;;;;5032198;28;20053;-81
2022/03/24 05:18:32;;;;;;;21.30;12.23;;;5.80;58.10;;;;;;5032874;28;20053;-81
2022/03/24 05:20:59;;;;;;;21.23;13.40;;;5.80;57.10;;;;;;5033088;28;20052;-80
2022/03/24 05:23:27;;;;;;;25.42;12.85;;;5.80;56.90;;;;;;5033474;28;20052;-81
2022/03/24 05:25:58;;;;;;;20.75;13.65;;;6.00;56.70;;;;;;5033550;28;20416;-82
2022/03/24 05:28:26;;;;;;;26.75;12.95;;;6.20;56.30;;;;;;5040309;28;20105;-87
2022/03/24 05:30:53;;;;;;;26.83;13.75;;;6.40;56.10;;;;;;5036893;28;20045;-83
2022/03/24 05:33:21;;;;;;;24.85;12.48;;;6.40;55.70;;;;;;5036762;28;20068;-84
2022/03/24 05:35:48;;;;;;;25.08;13.18;;;6.30;55.20;;;;;;5035273;28;20401;-83
2022/03/24 05:38:16;;;;;;;22.30;12.75;;;6.40;55.20;;;;;;5018095;28;20412;-78
2022/03/24 05:40:43;;;;;;;25.83;13.30;;;6.40;55.20;;;;;;5036697;28;20034;-82
2022/03/24 05:43:10;;;;;;;25.85;13.13;;;6.30;55.70;;;;;;5037119;28;20046;-82
2022/03/24 05:45:38;;;;;;;25.13;13.65;;;6.30;56.10;;;;;;5036692;28;20412;-78
2022/03/24 05:48:05;;;;;;;24.02;13.88;;;6.10;56.70;;;;;;5035983;28;20053;-80
2022/03/24 05:50:33;;;;;;;91.20;48.22;;;5.90;57.30;;;;;;5034102;28;20073;-75
2022/03/24 05:53:00;;;;;;;30.58;17.63;;;6.60;61.60;;;;;;5034510;28;20056;-74
2022/03/24 05:55:29;;;;;;;48.83;27.00;;;6.30;59.20;;;;;;5034286;28;20045;-77
2022/03/24 05:57:56;;;;;;;74.32;41.30;;;6.40;59.10;;;;;;5034499;28;20388;-74
2022/03/24 06:00:24;;;;;;;124.05;65.18;;;6.70;60.00;;;;;;5033575;28;20045;-80
2022/03/24 06:02:53;;;;;;;37.28;21.55;;;6.90;59.50;;;;;;5037013;28;20034;-85
2022/03/24 06:05:25;;;;;;;31.30;15.02;;;6.70;58.30;;;;;;5040707;28;20041;-79
2022/03/24 06:07:52;;;;;;;21.98;13.65;;;6.60;57.30;;;;;;5036497;28;20033;-76
2022/03/24 06:10:19;;;;;;;20.67;12.95;;;6.20;56.60;;;;;;5033886;28;20042;-73
2022/03/24 06:12:47;;;;;;;22.92;13.85;;;5.90;56.40;;;;;;5034132;28;20037;-80
2022/03/24 06:15:14;;;;;;;67.50;35.97;;;6.30;55.90;;;;;;5029536;28;20044;-81
2022/03/24 06:17:42;;;;;;;103.75;51.25;;;6.60;57.00;;;;;;5005372;28;20428;-74
2022/03/24 06:20:10;;;;;;;121.50;57.88;;;6.80;57.30;;;;;;5020855;28;20564;-77
2022/03/24 06:22:50;;;;;;;46.33;27.45;;;7.30;58.10;;;;;;5023390;28;20041;-73
2022/03/24 06:25:19;;;;;;;24.05;15.65;;;7.40;56.60;;;;;;5021663;28;20034;-73
2022/03/24 06:27:46;;;;;;;20.50;13.95;;;7.10;55.70;;;;;;5027281;28;20400;-74
2022/03/24 06:30:14;;;;;;;20.33;13.07;;;7.10;54.90;;;;;;5022897;28;20045;-73
2022/03/24 06:32:42;;;;;;;24.88;14.82;;;7.00;55.10;;;;;;5023086;28;20114;-76
2022/03/24 06:35:11;;;;;;;24.73;13.63;;;7.00;55.40;;;;;;5018426;28;20426;-74
2022/03/24 06:37:40;;;;;;;21.42;13.77;;;7.00;55.60;;;;;;5019900;28;20048;-78
2022/03/24 06:40:11;;;;;;;21.13;13.85;;;7.10;55.10;;;;;;5019593;28;20050;-83
2022/03/24 06:42:39;;;;;;;25.48;14.30;;;7.10;55.20;;;;;;5006046;28;20048;-78
2022/03/24 06:45:07;;;;;;;21.60;12.85;;;7.30;55.30;;;;;;5033164;28;20049;-78
2022/03/24 06:47:35;;;;;;;26.80;13.75;;;7.50;54.50;;;;;;5030333;28;20049;-75
2022/03/24 06:50:04;;;;;;;23.55;12.45;;;7.70;54.30;;;;;;5022123;28;20048;-78
2022/03/24 06:52:31;;;;;;;35.70;14.18;;;7.90;53.80;;;;;;5024225;28;20045;-76
2022/03/24 06:54:58;;;;;;;25.38;13.90;;;7.90;54.00;;;;;;5032079;28;20370;-77
2022/03/24 06:57:26;;;;;;;22.83;13.95;;;8.00;53.80;;;;;;5032763;28;20042;-79
2022/03/24 06:59:53;;;;;;;26.05;14.52;;;8.10;54.40;;;;;;5033106;28;20041;-78
2022/03/24 07:02:21;;;;;;;25.17;13.93;;;8.10;55.40;;;;;;5032159;28;20120;-80
2022/03/24 07:04:52;;;;;;;21.10;13.50;;;8.10;55.20;;;;;;5032796;28;20049;-75
2022/03/24 07:07:19;;;;;;;25.00;14.90;;;8.30;55.20;;;;;;5032606;28;20044;-74
2022/03/24 07:09:47;;;;;;;24.38;13.55;;;8.40;55.50;;;;;;5032861;28;20038;-74
2022/03/24 07:12:19;;;;;;;23.05;12.40;;;8.50;56.00;;;;;;5032086;28;20038;-75
2022/03/24 07:14:46;;;;;;;19.05;11.93;;;8.50;55.60;;;;;;5032660;28;20099;-75
2022/03/24 07:17:14;;;;;;;30.38;13.32;;;8.60;55.40;;;;;;5032023;28;20056;-73
2022/03/24 07:19:41;;;;;;;22.90;12.18;;;8.50;55.00;;;;;;5032474;28;20049;-73
2022/03/24 07:22:09;;;;;;;20.33;11.23;;;8.70;55.30;;;;;;5032266;28;20056;-73
2022/03/24 07:24:36;;;;;;;19.05;11.88;;;8.90;55.30;;;;;;5032447;28;20052;-74
2022/03/24 07:27:04;;;;;;;19.65;11.50;;;8.90;55.30;;;;;;5032569;28;20116;-74
2022/03/24 07:29:31;;;;;;;17.60;11.23;;;8.90;55.20;;;;;;5032393;28;20037;-73
2022/03/24 07:32:02;;;;;;;23.85;12.77;;;9.00;55.80;;;;;;5032043;28;20037;-74
2022/03/24 07:34:29;;;;;;;18.95;11.90;;;9.00;55.50;;;;;;5032103;28;20397;-72
2022/03/24 07:36:57;;;;;;;23.25;11.52;;;9.20;55.10;;;;;;5031968;28;20045;-74
2022/03/24 07:39:24;;;;;;;19.73;12.18;;;9.20;55.00;;;;;;5031722;28;20046;-74
2022/03/24 07:41:51;;;;;;;26.13;16.05;;;9.20;55.20;;;;;;5014418;28;20493;-74
2022/03/24 07:44:19;;;;;;;25.67;14.18;;;9.50;57.00;;;;;;5032315;28;20052;-75
2022/03/24 07:46:46;;;;;;;41.03;23.42;;;9.80;57.60;;;;;;5031849;28;20048;-73
2022/03/24 07:49:13;;;;;;;19.77;12.20;;;10.00;56.40;;;;;;5013922;28;20045;-73
2022/03/24 07:51:41;;;;;;;21.42;12.23;;;9.90;54.90;;;;;;5031304;28;20037;-74
2022/03/24 07:54:10;;;;;;;20.55;12.15;;;9.90;54.20;;;;;;5031811;28;20057;-75
2022/03/24 07:56:38;;;;;;;22.50;12.85;;;10.10;54.20;;;;;;5031753;28;20033;-75
2022/03/24 07:59:06;;;;;;;23.63;11.98;;;10.20;54.00;;;;;;5031834;28;20420;-75
2022/03/24 08:01:35;;;;;;;19.20;10.93;;;10.20;53.80;;;;;;5031485;28;20065;-76
2022/03/24 08:04:05;;;;;;;18.83;12.02;;;10.40;53.80;;;;;;5031511;28;20049;-75
2022/03/24 08:06:35;;;;;;;23.52;11.02;;;10.40;53.00;;;;;;5031688;28;20471;-74
2022/03/24 08:09:02;;;;;;;19.20;12.50;;;10.60;53.20;;;;;;5014013;28;20132;-75
2022/03/24 08:11:30;;;;;;;30.40;12.85;;;10.70;53.10;;;;;;5031665;28;20084;-74
2022/03/24 08:13:58;;;;;;;23.83;13.15;;;10.80;52.90;;;;;;5031237;28;20049;-74
2022/03/24 08:16:27;;;;;;;24.88;12.45;;;10.80;53.00;;;;;;4998001;28;20381;-74
2022/03/24 08:18:55;;;;;;;22.60;12.88;;;11.00;52.60;;;;;;5030911;28;20081;-76
2022/03/24 08:21:22;;;;;;;20.60;13.48;;;11.00;53.00;;;;;;5031328;28;20052;-76
2022/03/24 08:23:50;;;;;;;23.98;13.43;;;11.20;53.60;;;;;;5014134;28;20053;-74
2022/03/24 08:26:18;;;;;;;32.05;13.80;;;11.50;53.50;;;;;;5013701;28;20046;-75
2022/03/24 08:28:55;;;;;;;24.40;13.15;;;11.70;52.70;;;;;;5031136;28;20056;-75
2022/03/24 08:31:23;;;;;;;24.25;13.40;;;11.80;52.60;;;;;;5031028;28;20091;-75
2022/03/24 08:33:51;;;;;;;18.88;11.60;;;11.90;52.40;;;;;;5031101;28;20063;-74
2022/03/24 08:36:18;;;;;;;24.67;12.38;;;12.00;52.30;;;;;;5031029;28;20078;-76
2022/03/24 08:38:45;;;;;;;21.95;12.55;;;12.10;51.80;;;;;;5030892;28;20041;-74
2022/03/24 08:41:13;;;;;;;27.98;11.98;;;12.50;52.80;;;;;;5030949;28;20052;-74
2022/03/24 08:43:41;;;;;;;22.67;13.02;;;12.60;51.80;;;;;;5013389;28;20619;-74
2022/03/24 08:46:09;;;;;;;24.42;11.90;;;12.70;51.20;;;;;;5031347;28;20046;-74
2022/03/24 08:48:37;;;;;;;24.27;12.60;;;12.90;50.70;;;;;;5030527;28;20038;-75
2022/03/24 08:51:04;;;;;;;18.98;12.57;;;13.00;50.60;;;;;;5030663;28;20048;-75
2022/03/24 08:53:32;;;;;;;21.98;12.15;;;13.10;51.20;;;;;;5031259;28;20049;-75
2022/03/24 08:55:59;;;;;;;26.17;12.13;;;13.20;50.80;;;;;;5031085;28;20041;-73
2022/03/24 08:58:26;;;;;;;20.20;11.40;;;13.40;50.60;;;;;;5030993;28;20497;-75
2022/03/24 09:00:54;;;;;;;22.52;11.68;;;13.50;50.40;;;;;;5031085;28;20045;-74
2022/03/24 09:03:22;;;;;;;22.23;12.32;;;13.60;49.80;;;;;;5034890;28;20072;-75
2022/03/24 09:05:49;;;;;;;20.40;12.10;;;14.00;49.90;;;;;;5034914;28;20049;-74
2022/03/24 09:08:16;;;;;;;23.83;11.45;;;14.30;50.10;;;;;;5019802;28;20521;-73
2022/03/24 09:10:44;;;;;;;24.38;12.35;;;14.50;49.70;;;;;;5018636;28;20045;-74
2022/03/24 09:13:11;;;;;;;20.48;11.90;;;14.60;49.20;;;;;;5034945;28;20402;-73
2022/03/24 09:15:38;;;;;;;21.58;11.48;;;14.80;48.20;;;;;;5034779;28;20042;-75
2022/03/24 09:18:06;;;;;;;19.58;11.43;;;15.00;48.30;;;;;;5033991;28;20064;-74
2022/03/24 09:20:34;;;;;;;26.13;11.43;;;15.10;47.30;;;;;;5034437;28;20493;-74
2022/03/24 09:23:02;;;;;;;86.28;47.38;;;15.10;47.90;;;;;;5034937;28;20045;-71
2022/03/24 09:25:29;;;;;;;56.85;32.38;;;15.50;49.90;;;;;;5034500;28;20457;-75
2022/03/24 09:27:56;;;;;;;98.20;54.97;;;15.90;50.40;;;;;;5034863;28;20045;-77
2022/03/24 09:30:24;;;;;;;32.08;18.30;;;16.30;49.60;;;;;;5034393;28;20060;-74
2022/03/24 09:32:52;;;;;;;25.95;12.38;;;16.40;47.50;;;;;;5034257;28;20042;-74
2022/03/24 09:35:19;;;;;;;19.88;10.27;;;16.50;46.30;;;;;;5034082;28;20519;-76
2022/03/24 09:37:47;;;;;;;16.75;8.45;;;16.60;44.70;;;;;;5034227;28;20055;-73
2022/03/24 09:40:16;;;;;;;16.90;8.43;;;16.70;44.30;;;;;;5034458;28;20041;-74
2022/03/24 09:42:43;;;;;;;22.38;8.88;;;16.90;44.70;;;;;;5034762;28;20042;-73
2022/03/24 09:45:11;;;;;;;15.88;7.70;;;17.10;43.60;;;;;;5034324;28;20047;-75
2022/03/24 09:47:40;;;;;;;19.58;8.23;;;17.30;43.70;;;;;;5016196;28;20497;-74
2022/03/24 09:50:09;;;;;;;17.15;8.65;;;17.20;44.00;;;;;;5034111;28;20056;-73
2022/03/24 09:52:38;;;;;;;17.67;8.57;;;17.40;45.00;;;;;;5017050;28;20077;-74
2022/03/24 09:55:08;;;;;;;16.70;7.25;;;17.40;44.10;;;;;;5033623;28;20397;-76
2022/03/24 09:57:37;;;;;;;18.70;8.25;;;17.60;44.50;;;;;;5000790;28;20057;-74
2022/03/24 10:00:25;;;;;;;25.63;7.90;;;17.80;44.90;;;;;;5033549;28;20397;-75
2022/03/24 10:03:09;;;;;;;21.65;9.25;;;17.90;43.60;;;;;;5033799;28;20043;-75
2022/03/24 10:05:52;;;;;;;16.80;9.48;;;17.90;43.80;;;;;;5033698;28;20512;-74
2022/03/24 10:08:19;;;;;;;16.02;7.63;;;18.10;43.20;;;;;;5022387;28;20052;-76
2022/03/24 10:10:47;;;;;;;14.88;8.35;;;18.00;43.00;;;;;;5013668;28;20038;-76
2022/03/24 10:13:24;;;;;;;19.60;8.30;;;18.10;44.20;;;;;;5012703;28;20490;-75
2022/03/24 10:15:52;;;;;;;15.05;7.95;;;18.50;43.10;;;;;;5043090;28;20029;-75
2022/03/24 10:18:19;;;;;;;9.55;5.75;;;18.70;41.50;;;;;;5042805;28;20048;-75
2022/03/24 10:20:46;;;;;;;12.95;6.13;;;18.40;39.80;;;;;;5033489;28;20362;-77
2022/03/24 10:23:13;;;;;;;12.52;6.40;;;18.10;40.40;;;;;;5033712;28;20034;-76
2022/03/24 10:25:43;;;;;;;11.02;6.28;;;18.10;40.10;;;;;;5033117;28;20045;-74
2022/03/24 10:28:18;;;;;;;14.40;6.30;;;18.40;40.00;;;;;;5034155;28;20048;-74
2022/03/24 10:30:59;;;;;;;13.68;5.47;;;18.50;39.40;;;;;;5032840;28;20050;-74
2022/03/24 10:33:30;;;;;;;10.93;5.88;;;18.10;39.10;;;;;;5033017;28;20044;-73
2022/03/24 10:36:27;;;;;;;14.32;7.22;;;18.10;38.90;;;;;;5015713;28;20442;-74
2022/03/24 10:39:04;;;;;;;20.38;7.85;;;18.60;39.20;;;;;;4999768;28;20054;-76
2022/03/24 10:41:34;;;;;;;14.93;6.95;;;18.90;39.10;;;;;;5031906;28;20049;-74
2022/03/24 10:44:10;;;;;;;16.42;5.82;;;19.20;38.30;;;;;;5026301;28;20040;-75
2022/03/24 10:46:42;;;;;;;11.10;6.70;;;19.10;38.40;;;;;;5027952;28;20234;-74
2022/03/24 10:49:16;;;;;;;12.25;6.22;;;19.30;38.40;;;;;;5002403;28;20053;-75
2022/03/24 10:51:48;;;;;;;13.48;6.25;;;19.40;38.00;;;;;;5020631;28;20071;-76
2022/03/24 10:54:22;;;;;;;11.43;5.78;;;19.50;37.70;;;;;;5023020;28;20042;-74
2022/03/24 10:57:13;;;;;;;11.02;6.28;;;19.80;37.40;;;;;;5021752;28;20037;-74
2022/03/24 10:59:58;;;;;;;11.98;6.30;;;19.40;37.30;;;;;;5005639;28;20505;-74
2022/03/24 11:02:29;;;;;;;13.60;6.18;;;19.50;37.70;;;;;;5022249;28;20497;-73
2022/03/24 11:05:00;;;;;;;;;;;19.40;36.90;;;;;;5021040;28;20053;-73
2022/03/24 11:07:28;;;;;;;13.75;6.35;;;19.20;36.90;;;;;;5022538;28;19921;-73
2022/03/24 11:09:55;;;;;;;13.63;6.22;;;19.20;36.90;;;;;;5020657;28;20084;-72
2022/03/24 11:12:29;;;;;;;12.75;6.15;;;19.50;37.10;;;;;;5031709;28;20045;-75
2022/03/24 11:15:02;;;;;;;11.70;5.90;;;19.30;36.30;;;;;;5023157;28;20079;-75
2022/03/24 11:17:31;;;;;;;11.70;6.10;;;19.50;36.50;;;;;;4989057;28;20055;-73
2022/03/24 11:20:04;;;;;;;14.48;6.80;;;19.70;36.90;;;;;;5022166;28;20781;-74
2022/03/24 11:22:43;;;;;;;14.45;7.07;;;20.30;36.30;;;;;;5020610;28;20437;-73
2022/03/24 11:25:11;;;;;;;13.32;6.18;;;19.70;35.80;;;;;;5020531;28;20042;-74
2022/03/24 11:27:39;;;;;;;14.13;5.93;;;19.60;36.20;;;;;;5003047;28;20040;-73
2022/03/24 11:30:09;;;;;;;12.82;6.20;;;19.10;36.10;;;;;;5019701;28;20053;-73
2022/03/24 11:32:38;;;;;;;8.53;5.33;;;19.20;35.90;;;;;;4988840;28;20037;-74
2022/03/24 11:35:06;;;;;;;15.77;5.90;;;19.20;35.50;;;;;;5021310;28;20064;-74
2022/03/24 11:37:35;;;;;;;11.75;5.82;;;19.60;36.00;;;;;;5023211;28;20045;-75
2022/03/24 11:40:15;;;;;;;9.32;5.45;;;19.80;35.60;;;;;;5010986;28;20053;-73
2022/03/24 11:42:46;;;;;;;14.45;6.20;;;19.80;35.50;;;;;;5019095;28;20428;-73
2022/03/24 11:45:20;;;;;;;17.60;5.78;;;19.90;35.60;;;;;;5021529;28;20038;-74
2022/03/24 11:48:11;;;;;;;13.50;7.18;;;20.50;34.80;;;;;;5023291;28;20048;-75
2022/03/24 11:50:49;;;;;;;9.07;5.05;;;20.10;34.60;;;;;;5019762;28;20497;-74
2022/03/24 11:53:23;;;;;;;12.25;5.70;;;20.90;35.90;;;;;;5019794;28;20042;-75
2022/03/24 11:56:02;;;;;;;10.50;6.13;;;21.50;35.10;;;;;;5019549;28;20037;-73
2022/03/24 11:58:32;;;;;;;13.73;8.40;;;21.10;34.90;;;;;;5019364;28;20046;-76
2022/03/24 12:01:20;;;;;;;11.95;7.47;;;21.50;35.40;;;;;;4990627;28;20128;-75
2022/03/24 12:03:56;;;;;;;18.40;6.40;;;21.90;34.30;;;;;;5006672;28;20301;-75
2022/03/24 12:06:43;;;;;;;13.55;6.53;;;21.80;34.40;;;;;;5020327;28;20062;-73
2022/03/24 12:09:12;;;;;;;10.95;5.68;;;21.70;33.90;;;;;;4995671;28;20045;-74
2022/03/24 12:11:47;;;;;;;10.85;6.10;;;21.30;33.80;;;;;;5023514;28;20025;-76
2022/03/24 12:14:21;;;;;;;12.43;6.22;;;20.70;34.50;;;;;;5019478;28;20037;-73
2022/03/24 12:16:52;;;;;;;10.77;5.97;;;20.40;34.00;;;;;;5003990;28;20383;-75
2022/03/24 12:19:43;;;;;;;11.30;6.03;;;20.70;34.70;;;;;;5017023;28;20038;-76
2022/03/24 12:22:25;;;;;;;10.43;5.93;;;21.80;33.80;;;;;;5011342;28;20045;-75
2022/03/24 12:25:13;;;;;;;15.05;6.35;;;21.40;34.30;;;;;;5020653;28;20041;-74
2022/03/24 12:28:01;;;;;;;23.23;8.35;;;21.40;33.80;;;;;;5021338;28;20115;-77
2022/03/24 12:30:43;;;;;;;15.55;8.00;;;20.60;33.70;;;;;;5028416;28;20045;-74
2022/03/24 12:33:14;;;;;;;12.20;4.97;;;20.60;34.00;;;;;;4996966;28;20049;-76
2022/03/24 12:35:49;;;;;;;9.10;4.68;;;20.50;33.60;;;;;;5013071;28;20041;-74
2022/03/24 12:38:49;;;;;;;13.00;6.00;;;20.40;33.60;;;;;;5030549;28;20442;-73
2022/03/24 12:41:20;;;;;;;13.75;6.25;;;21.30;33.60;;;;;;5009842;28;20141;-74
2022/03/24 12:43:56;;;;;;;14.70;7.00;;;21.40;33.20;;;;;;5013262;28;20047;-73
2022/03/24 12:46:32;;;;;;;14.25;6.10;;;22.80;33.00;;;;;;4996311;28;20048;-74
2022/03/24 12:49:07;;;;;;;12.60;7.15;;;24.10;31.70;;;;;;5030278;28;20052;-75
2022/03/24 12:51:47;;;;;;;13.30;6.43;;;23.60;31.70;;;;;;5013229;28;20121;-72